sensor_id;sensor_type;location;lat;lon;timestamp;P1;durP1;ratioP1;P2;durP2;ratioP2
10731;SDS011;5417;42.686;23.244;2023-04-25T00:02:17;4.70;;;2.50;;
10731;SDS011;5417;42.686;23.244;2023-04-25T00:08:13;2.60;;;2.40;;
10731;SDS011;5417;42.686;23.244;2023-04-25T00:14:49;3.23;;;2.93;;
10731;SDS011;5417;42.686;23.244;2023-04-25T00:16:55;3.67;;;3.10;;
10731;SDS011;5417;42.686;23.244;2023-04-25T00:20:01;3.50;;;3.30;;
10731;SDS011;5417;42.686;23.244;2023-04-25T00:23:34;3.07;;;2.80;;
10731;SDS011;5417;42.686;23.244;2023-04-25T00:25:38;2.70;;;2.50;;
10731;SDS011;5417;42.686;23.244;2023-04-25T00:28:10;2.30;;;2.17;;
10731;SDS011;5417;42.686;23.244;2023-04-25T00:31:39;2.00;;;1.90;;
10731;SDS011;5417;42.686;23.244;2023-04-25T00:34:21;2.30;;;2.20;;
10731;SDS011;5417;42.686;23.244;2023-04-25T00:37:13;2.43;;;2.30;;
10731;SDS011;5417;42.686;23.244;2023-04-25T01:07:54;1.00;;;0.90;;
10731;SDS011;5417;42.686;23.244;2023-04-25T01:10:21;0.77;;;0.73;;
10731;SDS011;5417;42.686;23.244;2023-04-25T01:19:18;0.60;;;0.60;;
10731;SDS011;5417;42.686;23.244;2023-04-25T01:21:47;0.83;;;0.83;;
10731;SDS011;5417;42.686;23.244;2023-04-25T01:24:14;0.90;;;0.90;;
10731;SDS011;5417;42.686;23.244;2023-04-25T01:27:20;1.13;;;1.00;;
10731;SDS011;5417;42.686;23.244;2023-04-25T01:30:36;1.03;;;0.80;;
10731;SDS011;5417;42.686;23.244;2023-04-25T01:39:07;10.47;;;9.47;;
10731;SDS011;5417;42.686;23.244;2023-04-25T01:41:36;3.43;;;2.83;;
10731;SDS011;5417;42.686;23.244;2023-04-25T01:44:03;5.00;;;4.53;;
10731;SDS011;5417;42.686;23.244;2023-04-25T02:03:52;13.20;;;11.80;;
10731;SDS011;5417;42.686;23.244;2023-04-25T02:06:19;4.10;;;3.80;;
10731;SDS011;5417;42.686;23.244;2023-04-25T02:08:46;4.43;;;4.13;;
10731;SDS011;5417;42.686;23.244;2023-04-25T02:17:09;4.73;;;4.43;;
10731;SDS011;5417;42.686;23.244;2023-04-25T02:19:39;6.63;;;6.13;;
10731;SDS011;5417;42.686;23.244;2023-04-25T02:22:05;5.00;;;4.70;;
10731;SDS011;5417;42.686;23.244;2023-04-25T02:24:32;4.27;;;3.97;;
10731;SDS011;5417;42.686;23.244;2023-04-25T02:26:59;45.27;;;37.17;;
10731;SDS011;5417;42.686;23.244;2023-04-25T02:30:29;14.23;;;12.73;;
10731;SDS011;5417;42.686;23.244;2023-04-25T02:33:43;4.37;;;4.07;;
10731;SDS011;5417;42.686;23.244;2023-04-25T03:14:06;5.87;;;5.47;;
10731;SDS011;5417;42.686;23.244;2023-04-25T03:22:56;5.63;;;5.23;;
10731;SDS011;5417;42.686;23.244;2023-04-25T03:25:23;6.17;;;5.77;;
10731;SDS011;5417;42.686;23.244;2023-04-25T03:27:50;6.67;;;6.07;;
10731;SDS011;5417;42.686;23.244;2023-04-25T03:30:18;6.07;;;5.67;;
10731;SDS011;5417;42.686;23.244;2023-04-25T03:32:45;5.33;;;5.03;;
10731;SDS011;5417;42.686;23.244;2023-04-25T03:35:12;5.83;;;5.43;;
10731;SDS011;5417;42.686;23.244;2023-04-25T03:44:17;6.50;;;6.10;;
10731;SDS011;5417;42.686;23.244;2023-04-25T03:46:45;6.60;;;6.10;;
10731;SDS011;5417;42.686;23.244;2023-04-25T03:49:50;6.43;;;5.93;;
10731;SDS011;5417;42.686;23.244;2023-04-25T03:52:03;7.67;;;7.07;;
10731;SDS011;5417;42.686;23.244;2023-04-25T03:54:29;7.20;;;6.70;;
10731;SDS011;5417;42.686;23.244;2023-04-25T03:56:56;7.87;;;7.27;;
10731;SDS011;5417;42.686;23.244;2023-04-25T04:06:20;8.53;;;7.83;;
10731;SDS011;5417;42.686;23.244;2023-04-25T04:08:47;7.70;;;7.20;;
10731;SDS011;5417;42.686;23.244;2023-04-25T04:18:09;8.63;;;7.83;;
10731;SDS011;5417;42.686;23.244;2023-04-25T04:20:36;8.30;;;7.70;;
10731;SDS011;5417;42.686;23.244;2023-04-25T04:23:04;8.10;;;7.50;;
10731;SDS011;5417;42.686;23.244;2023-04-25T04:25:33;7.67;;;7.17;;
10731;SDS011;5417;42.686;23.244;2023-04-25T04:29:19;8.30;;;7.60;;
10731;SDS011;5417;42.686;23.244;2023-04-25T04:31:11;8.60;;;7.80;;
10731;SDS011;5417;42.686;23.244;2023-04-25T04:33:41;9.07;;;8.43;;
10731;SDS011;5417;42.686;23.244;2023-04-25T04:36:09;8.97;;;8.30;;
10731;SDS011;5417;42.686;23.244;2023-04-25T04:38:38;9.90;;;9.20;;
10731;SDS011;5417;42.686;23.244;2023-04-25T04:41:05;9.87;;;9.07;;
10731;SDS011;5417;42.686;23.244;2023-04-25T04:43:34;8.63;;;7.93;;
10731;SDS011;5417;42.686;23.244;2023-04-25T04:46:01;9.13;;;8.33;;
10731;SDS011;5417;42.686;23.244;2023-04-25T05:12:28;11.30;;;10.30;;
10731;SDS011;5417;42.686;23.244;2023-04-25T05:16:11;10.03;;;9.07;;
10731;SDS011;5417;42.686;23.244;2023-04-25T05:18:38;10.37;;;9.47;;
10731;SDS011;5417;42.686;23.244;2023-04-25T05:21:05;10.43;;;9.63;;
10731;SDS011;5417;42.686;23.244;2023-04-25T05:23:32;8.67;;;7.97;;
10731;SDS011;5417;42.686;23.244;2023-04-25T05:32:53;8.07;;;7.37;;
10731;SDS011;5417;42.686;23.244;2023-04-25T05:41:48;8.33;;;7.60;;
10731;SDS011;5417;42.686;23.244;2023-04-25T05:49:51;7.97;;;7.27;;
10731;SDS011;5417;42.686;23.244;2023-04-25T05:56:16;12.50;;;11.37;;
10731;SDS011;5417;42.686;23.244;2023-04-25T06:00:02;10.60;;;9.70;;
10731;SDS011;5417;42.686;23.244;2023-04-25T06:08:34;10.17;;;9.27;;
10731;SDS011;5417;42.686;23.244;2023-04-25T06:17:34;9.73;;;8.87;;
10731;SDS011;5417;42.686;23.244;2023-04-25T06:20:01;8.63;;;7.63;;
10731;SDS011;5417;42.686;23.244;2023-04-25T06:22:30;8.20;;;7.43;;
10731;SDS011;5417;42.686;23.244;2023-04-25T06:31:25;9.03;;;8.13;;
10731;SDS011;5417;42.686;23.244;2023-04-25T06:37:21;8.30;;;7.70;;
10731;SDS011;5417;42.686;23.244;2023-04-25T06:39:48;9.47;;;8.53;;
10731;SDS011;5417;42.686;23.244;2023-04-25T06:48:30;9.83;;;9.03;;
10731;SDS011;5417;42.686;23.244;2023-04-25T06:53:55;10.37;;;9.37;;
10731;SDS011;5417;42.686;23.244;2023-04-25T06:59:50;11.10;;;10.10;;
10731;SDS011;5417;42.686;23.244;2023-04-25T07:08:20;11.80;;;10.80;;
10731;SDS011;5417;42.686;23.244;2023-04-25T07:21:35;12.10;;;10.97;;
10731;SDS011;5417;42.686;23.244;2023-04-25T07:23:54;12.13;;;10.80;;
10731;SDS011;5417;42.686;23.244;2023-04-25T07:26:21;13.20;;;10.67;;
10731;SDS011;5417;42.686;23.244;2023-04-25T07:28:48;10.67;;;9.67;;
10731;SDS011;5417;42.686;23.244;2023-04-25T07:33:25;11.70;;;10.53;;
10731;SDS011;5417;42.686;23.244;2023-04-25T07:35:15;10.63;;;9.80;;
10731;SDS011;5417;42.686;23.244;2023-04-25T07:37:40;9.97;;;9.27;;
10731;SDS011;5417;42.686;23.244;2023-04-25T07:40:09;10.10;;;9.20;;
10731;SDS011;5417;42.686;23.244;2023-04-25T07:43:55;9.70;;;8.90;;
10731;SDS011;5417;42.686;23.244;2023-04-25T07:45:49;10.60;;;9.60;;
10731;SDS011;5417;42.686;23.244;2023-04-25T07:48:16;7.23;;;5.83;;
10731;SDS011;5417;42.686;23.244;2023-04-25T08:03:32;3.63;;;3.43;;
10731;SDS011;5417;42.686;23.244;2023-04-25T08:24:55;3.03;;;2.83;;
10731;SDS011;5417;42.686;23.244;2023-04-25T08:31:03;2.30;;;2.10;;
10731;SDS011;5417;42.686;23.244;2023-04-25T08:33:31;2.50;;;2.30;;
10731;SDS011;5417;42.686;23.244;2023-04-25T08:36:28;2.63;;;2.43;;
10731;SDS011;5417;42.686;23.244;2023-04-25T08:38:49;3.93;;;2.67;;
10731;SDS011;5417;42.686;23.244;2023-04-25T08:41:17;2.30;;;2.20;;
10731;SDS011;5417;42.686;23.244;2023-04-25T08:43:45;2.00;;;1.77;;
10731;SDS011;5417;42.686;23.244;2023-04-25T08:46:46;1.73;;;1.60;;
10731;SDS011;5417;42.686;23.244;2023-04-25T08:50:10;1.60;;;1.50;;
10731;SDS011;5417;42.686;23.244;2023-04-25T08:52:16;1.60;;;1.50;;
10731;SDS011;5417;42.686;23.244;2023-04-25T08:58:17;1.67;;;1.40;;
10731;SDS011;5417;42.686;23.244;2023-04-25T09:29:46;2.20;;;1.23;;
10731;SDS011;5417;42.686;23.244;2023-04-25T09:38:52;1.40;;;1.13;;
10731;SDS011;5417;42.686;23.244;2023-04-25T09:42:41;1.00;;;1.00;;
10731;SDS011;5417;42.686;23.244;2023-04-25T09:48:57;1.00;;;1.00;;
10731;SDS011;5417;42.686;23.244;2023-04-25T09:53:44;3.67;;;1.10;;
10731;SDS011;5417;42.686;23.244;2023-04-25T09:54:31;0.83;;;0.83;;
10731;SDS011;5417;42.686;23.244;2023-04-25T09:56:59;0.90;;;0.90;;
10731;SDS011;5417;42.686;23.244;2023-04-25T09:59:36;2.50;;;2.30;;
10731;SDS011;5417;42.686;23.244;2023-04-25T10:02:07;2.70;;;2.50;;
10731;SDS011;5417;42.686;23.244;2023-04-25T10:14:21;0.93;;;0.93;;
10731;SDS011;5417;42.686;23.244;2023-04-25T10:44:10;1.00;;;1.00;;
10731;SDS011;5417;42.686;23.244;2023-04-25T10:46:37;1.33;;;1.27;;
10731;SDS011;5417;42.686;23.244;2023-04-25T10:49:04;1.67;;;1.57;;
10731;SDS011;5417;42.686;23.244;2023-04-25T10:57:46;0.70;;;0.70;;
10731;SDS011;5417;42.686;23.244;2023-04-25T11:41:06;1.40;;;1.03;;
10731;SDS011;5417;42.686;23.244;2023-04-25T12:11:21;0.90;;;0.90;;
10731;SDS011;5417;42.686;23.244;2023-04-25T12:13:51;1.20;;;1.20;;
10731;SDS011;5417;42.686;23.244;2023-04-25T12:16:19;1.00;;;1.00;;
10731;SDS011;5417;42.686;23.244;2023-04-25T12:18:45;1.53;;;1.43;;
10731;SDS011;5417;42.686;23.244;2023-04-25T12:22:19;0.93;;;0.93;;
10731;SDS011;5417;42.686;23.244;2023-04-25T12:24:25;2.40;;;1.73;;
10731;SDS011;5417;42.686;23.244;2023-04-25T12:36:08;0.90;;;0.90;;
10731;SDS011;5417;42.686;23.244;2023-04-25T12:38:37;1.03;;;1.00;;
10731;SDS011;5417;42.686;23.244;2023-04-25T12:41:05;1.20;;;1.10;;
10731;SDS011;5417;42.686;23.244;2023-04-25T12:43:32;0.90;;;0.90;;
10731;SDS011;5417;42.686;23.244;2023-04-25T12:45:59;1.97;;;1.00;;
10731;SDS011;5417;42.686;23.244;2023-04-25T12:57:17;1.60;;;1.40;;
10731;SDS011;5417;42.686;23.244;2023-04-25T12:59:44;1.90;;;1.30;;
10731;SDS011;5417;42.686;23.244;2023-04-25T13:14:42;1.67;;;1.57;;
10731;SDS011;5417;42.686;23.244;2023-04-25T13:17:09;2.23;;;2.03;;
10731;SDS011;5417;42.686;23.244;2023-04-25T13:19:36;4.10;;;3.70;;
10731;SDS011;5417;42.686;23.244;2023-04-25T13:22:04;3.40;;;3.00;;
10731;SDS011;5417;42.686;23.244;2023-04-25T13:24:32;2.20;;;2.10;;
10731;SDS011;5417;42.686;23.244;2023-04-25T13:30:26;2.73;;;2.53;;
10731;SDS011;5417;42.686;23.244;2023-04-25T13:33:59;2.30;;;2.20;;
10731;SDS011;5417;42.686;23.244;2023-04-25T13:36:08;3.67;;;1.80;;
10731;SDS011;5417;42.686;23.244;2023-04-25T13:55:58;6.13;;;3.10;;
10731;SDS011;5417;42.686;23.244;2023-04-25T14:02:13;1.87;;;1.77;;
10731;SDS011;5417;42.686;23.244;2023-04-25T14:05:43;2.30;;;2.10;;
10731;SDS011;5417;42.686;23.244;2023-04-25T14:08:22;1.90;;;1.80;;
10731;SDS011;5417;42.686;23.244;2023-04-25T14:10:42;1.40;;;1.40;;
10731;SDS011;5417;42.686;23.244;2023-04-25T14:13:10;1.77;;;1.10;;
10731;SDS011;5417;42.686;23.244;2023-04-25T14:19:44;2.03;;;1.40;;
10731;SDS011;5417;42.686;23.244;2023-04-25T14:25:10;1.10;;;1.00;;
10731;SDS011;5417;42.686;23.244;2023-04-25T14:27:37;1.40;;;1.30;;
10731;SDS011;5417;42.686;23.244;2023-04-25T14:30:06;1.00;;;1.00;;
10731;SDS011;5417;42.686;23.244;2023-04-25T14:33:04;1.23;;;1.20;;
10731;SDS011;5417;42.686;23.244;2023-04-25T14:35:22;1.20;;;1.17;;
10731;SDS011;5417;42.686;23.244;2023-04-25T14:41:19;2.03;;;1.47;;
10731;SDS011;5417;42.686;23.244;2023-04-25T14:44:20;1.47;;;1.47;;
10731;SDS011;5417;42.686;23.244;2023-04-25T14:46:42;1.63;;;1.10;;
10731;SDS011;5417;42.686;23.244;2023-04-25T14:49:09;1.77;;;1.67;;
10731;SDS011;5417;42.686;23.244;2023-04-25T14:51:55;1.40;;;1.40;;
10731;SDS011;5417;42.686;23.244;2023-04-25T14:54:23;1.07;;;1.03;;
10731;SDS011;5417;42.686;23.244;2023-04-25T14:57:21;1.47;;;1.37;;
10731;SDS011;5417;42.686;23.244;2023-04-25T15:05:32;1.87;;;1.77;;
10731;SDS011;5417;42.686;23.244;2023-04-25T15:07:59;2.77;;;1.60;;
10731;SDS011;5417;42.686;23.244;2023-04-25T15:10:26;2.20;;;2.10;;
10731;SDS011;5417;42.686;23.244;2023-04-25T15:13:57;1.73;;;1.63;;
10731;SDS011;5417;42.686;23.244;2023-04-25T15:16:19;2.30;;;1.90;;
10731;SDS011;5417;42.686;23.244;2023-04-25T15:22:13;1.20;;;1.10;;
10731;SDS011;5417;42.686;23.244;2023-04-25T15:49:41;2.03;;;1.77;;
10731;SDS011;5417;42.686;23.244;2023-04-25T16:00:31;1.50;;;1.40;;
10731;SDS011;5417;42.686;23.244;2023-04-25T16:03:28;2.43;;;1.90;;
10731;SDS011;5417;42.686;23.244;2023-04-25T16:05:56;3.27;;;1.70;;
10731;SDS011;5417;42.686;23.244;2023-04-25T16:08:23;2.27;;;2.07;;
10731;SDS011;5417;42.686;23.244;2023-04-25T16:15:03;1.30;;;1.20;;
10731;SDS011;5417;42.686;23.244;2023-04-25T16:17:26;1.80;;;1.70;;
10731;SDS011;5417;42.686;23.244;2023-04-25T16:26:24;2.63;;;2.33;;
10731;SDS011;5417;42.686;23.244;2023-04-25T16:28:51;3.20;;;3.00;;
10731;SDS011;5417;42.686;23.244;2023-04-25T16:31:18;3.27;;;3.07;;
10731;SDS011;5417;42.686;23.244;2023-04-25T16:33:47;3.10;;;2.90;;
10731;SDS011;5417;42.686;23.244;2023-04-25T16:42:42;2.90;;;2.70;;
10731;SDS011;5417;42.686;23.244;2023-04-25T16:49:04;3.70;;;3.50;;
10731;SDS011;5417;42.686;23.244;2023-04-25T16:51:25;3.70;;;3.50;;
10731;SDS011;5417;42.686;23.244;2023-04-25T16:53:52;4.00;;;3.80;;
10731;SDS011;5417;42.686;23.244;2023-04-25T16:59:50;4.30;;;4.03;;
10731;SDS011;5417;42.686;23.244;2023-04-25T17:02:17;4.10;;;3.80;;
10731;SDS011;5417;42.686;23.244;2023-04-25T17:04:44;3.00;;;2.80;;
10731;SDS011;5417;42.686;23.244;2023-04-25T17:10:12;2.10;;;2.00;;
10731;SDS011;5417;42.686;23.244;2023-04-25T17:12:39;2.10;;;2.00;;
10731;SDS011;5417;42.686;23.244;2023-04-25T17:15:08;2.37;;;2.23;;
10731;SDS011;5417;42.686;23.244;2023-04-25T17:17:35;2.80;;;2.60;;
10731;SDS011;5417;42.686;23.244;2023-04-25T17:20:05;2.87;;;2.67;;
10731;SDS011;5417;42.686;23.244;2023-04-25T17:23:36;2.60;;;2.40;;
10731;SDS011;5417;42.686;23.244;2023-04-25T17:29:13;2.43;;;2.23;;
10731;SDS011;5417;42.686;23.244;2023-04-25T17:32:18;2.00;;;1.80;;
10731;SDS011;5417;42.686;23.244;2023-04-25T17:34:45;1.80;;;1.70;;
10731;SDS011;5417;42.686;23.244;2023-04-25T17:38:16;2.17;;;2.07;;
10731;SDS011;5417;42.686;23.244;2023-04-25T17:40:35;2.47;;;2.27;;
10731;SDS011;5417;42.686;23.244;2023-04-25T17:47:25;2.73;;;2.53;;
10731;SDS011;5417;42.686;23.244;2023-04-25T17:49:44;1.93;;;1.83;;
10731;SDS011;5417;42.686;23.244;2023-04-25T17:54:57;3.80;;;3.50;;
10731;SDS011;5417;42.686;23.244;2023-04-25T17:58:39;3.83;;;3.40;;
10731;SDS011;5417;42.686;23.244;2023-04-25T18:00:36;4.50;;;4.10;;
10731;SDS011;5417;42.686;23.244;2023-04-25T18:03:38;4.60;;;4.27;;
10731;SDS011;5417;42.686;23.244;2023-04-25T18:13:16;3.53;;;3.23;;
10731;SDS011;5417;42.686;23.244;2023-04-25T18:15:44;1.70;;;1.60;;
10731;SDS011;5417;42.686;23.244;2023-04-25T18:18:11;1.70;;;1.60;;
10731;SDS011;5417;42.686;23.244;2023-04-25T18:20:44;2.07;;;1.97;;
10731;SDS011;5417;42.686;23.244;2023-04-25T18:23:13;4.10;;;3.73;;
10731;SDS011;5417;42.686;23.244;2023-04-25T18:29:50;7.07;;;6.37;;
10731;SDS011;5417;42.686;23.244;2023-04-25T18:32:55;3.40;;;3.10;;
10731;SDS011;5417;42.686;23.244;2023-04-25T18:35:06;4.93;;;4.53;;
10731;SDS011;5417;42.686;23.244;2023-04-25T18:44:29;2.00;;;1.90;;
10731;SDS011;5417;42.686;23.244;2023-04-25T18:47:05;2.00;;;1.90;;
10731;SDS011;5417;42.686;23.244;2023-04-25T18:49:32;1.40;;;1.30;;
10731;SDS011;5417;42.686;23.244;2023-04-25T18:51:59;1.60;;;1.50;;
10731;SDS011;5417;42.686;23.244;2023-04-25T18:58:03;1.50;;;1.40;;
10731;SDS011;5417;42.686;23.244;2023-04-25T19:00:31;1.87;;;1.77;;
10731;SDS011;5417;42.686;23.244;2023-04-25T19:02:58;1.70;;;1.60;;
10731;SDS011;5417;42.686;23.244;2023-04-25T19:05:27;1.47;;;1.37;;
10731;SDS011;5417;42.686;23.244;2023-04-25T19:07:54;1.70;;;1.60;;
10731;SDS011;5417;42.686;23.244;2023-04-25T19:10:21;1.80;;;1.43;;
10731;SDS011;5417;42.686;23.244;2023-04-25T19:12:48;1.60;;;1.50;;
10731;SDS011;5417;42.686;23.244;2023-04-25T19:15:17;2.07;;;1.60;;
10731;SDS011;5417;42.686;23.244;2023-04-25T19:17:44;1.47;;;1.40;;
10731;SDS011;5417;42.686;23.244;2023-04-25T19:20:11;1.50;;;1.40;;
10731;SDS011;5417;42.686;23.244;2023-04-25T19:22:38;1.30;;;1.20;;
10731;SDS011;5417;42.686;23.244;2023-04-25T19:25:05;2.20;;;2.10;;
10731;SDS011;5417;42.686;23.244;2023-04-25T19:27:32;1.37;;;1.17;;
10731;SDS011;5417;42.686;23.244;2023-04-25T19:29:59;1.50;;;1.40;;
10731;SDS011;5417;42.686;23.244;2023-04-25T19:32:33;0.70;;;0.70;;
10731;SDS011;5417;42.686;23.244;2023-04-25T19:35:00;1.30;;;1.10;;
10731;SDS011;5417;42.686;23.244;2023-04-25T19:37:28;1.50;;;1.40;;
10731;SDS011;5417;42.686;23.244;2023-04-25T19:39:55;1.20;;;1.20;;
10731;SDS011;5417;42.686;23.244;2023-04-25T19:42:22;3.10;;;2.30;;
10731;SDS011;5417;42.686;23.244;2023-04-25T19:44:49;2.10;;;2.00;;
10731;SDS011;5417;42.686;23.244;2023-04-25T19:47:16;1.23;;;1.17;;
10731;SDS011;5417;42.686;23.244;2023-04-25T19:49:45;1.13;;;1.13;;
10731;SDS011;5417;42.686;23.244;2023-04-25T19:52:12;2.70;;;2.50;;
10731;SDS011;5417;42.686;23.244;2023-04-25T19:54:40;2.10;;;1.97;;
10731;SDS011;5417;42.686;23.244;2023-04-25T19:57:07;6.00;;;3.87;;
10731;SDS011;5417;42.686;23.244;2023-04-25T19:59:34;4.57;;;3.77;;
10731;SDS011;5417;42.686;23.244;2023-04-25T20:02:01;4.17;;;3.77;;
10731;SDS011;5417;42.686;23.244;2023-04-25T20:04:28;3.07;;;2.73;;
10731;SDS011;5417;42.686;23.244;2023-04-25T20:06:57;4.50;;;3.70;;
10731;SDS011;5417;42.686;23.244;2023-04-25T20:09:24;9.17;;;7.20;;
10731;SDS011;5417;42.686;23.244;2023-04-25T20:11:51;6.17;;;4.90;;
10731;SDS011;5417;42.686;23.244;2023-04-25T20:15:34;5.47;;;4.77;;
10731;SDS011;5417;42.686;23.244;2023-04-25T20:17:51;8.23;;;5.40;;
10731;SDS011;5417;42.686;23.244;2023-04-25T20:20:18;2.60;;;2.40;;
10731;SDS011;5417;42.686;23.244;2023-04-25T20:22:47;4.30;;;2.97;;
10731;SDS011;5417;42.686;23.244;2023-04-25T20:25:28;12.20;;;9.03;;
10731;SDS011;5417;42.686;23.244;2023-04-25T20:27:55;8.27;;;6.73;;
10731;SDS011;5417;42.686;23.244;2023-04-25T20:30:22;28.13;;;18.83;;
10731;SDS011;5417;42.686;23.244;2023-04-25T20:32:49;1.80;;;1.70;;
10731;SDS011;5417;42.686;23.244;2023-04-25T20:38:40;1.43;;;1.33;;
10731;SDS011;5417;42.686;23.244;2023-04-25T20:41:07;1.37;;;1.37;;
10731;SDS011;5417;42.686;23.244;2023-04-25T20:43:34;1.50;;;1.40;;
10731;SDS011;5417;42.686;23.244;2023-04-25T20:46:04;1.37;;;1.33;;
10731;SDS011;5417;42.686;23.244;2023-04-25T20:48:31;1.57;;;1.47;;
10731;SDS011;5417;42.686;23.244;2023-04-25T20:50:58;1.13;;;1.13;;
10731;SDS011;5417;42.686;23.244;2023-04-25T20:53:25;1.20;;;1.20;;
10731;SDS011;5417;42.686;23.244;2023-04-25T20:55:54;1.13;;;1.13;;
10731;SDS011;5417;42.686;23.244;2023-04-25T20:58:20;1.20;;;1.20;;
10731;SDS011;5417;42.686;23.244;2023-04-25T21:00:47;1.40;;;1.13;;
10731;SDS011;5417;42.686;23.244;2023-04-25T21:03:15;1.30;;;1.20;;
10731;SDS011;5417;42.686;23.244;2023-04-25T21:05:42;1.50;;;1.40;;
10731;SDS011;5417;42.686;23.244;2023-04-25T21:08:09;1.93;;;1.77;;
10731;SDS011;5417;42.686;23.244;2023-04-25T21:10:35;2.40;;;2.20;;
10731;SDS011;5417;42.686;23.244;2023-04-25T21:13:04;4.27;;;2.80;;
10731;SDS011;5417;42.686;23.244;2023-04-25T21:15:31;3.90;;;2.40;;
10731;SDS011;5417;42.686;23.244;2023-04-25T21:17:57;4.17;;;2.90;;
10731;SDS011;5417;42.686;23.244;2023-04-25T21:21:40;7.23;;;3.77;;
10731;SDS011;5417;42.686;23.244;2023-04-25T21:23:48;5.10;;;3.57;;
10731;SDS011;5417;42.686;23.244;2023-04-25T21:27:18;9.70;;;3.20;;
10731;SDS011;5417;42.686;23.244;2023-04-25T21:29:28;2.93;;;2.70;;
10731;SDS011;5417;42.686;23.244;2023-04-25T21:31:55;5.57;;;3.57;;
10731;SDS011;5417;42.686;23.244;2023-04-25T21:34:24;3.50;;;2.87;;
10731;SDS011;5417;42.686;23.244;2023-04-25T21:41:14;2.80;;;2.60;;
10731;SDS011;5417;42.686;23.244;2023-04-25T21:43:26;3.13;;;2.80;;
10731;SDS011;5417;42.686;23.244;2023-04-25T21:51:53;3.43;;;3.17;;
10731;SDS011;5417;42.686;23.244;2023-04-25T21:54:31;3.20;;;3.00;;
10731;SDS011;5417;42.686;23.244;2023-04-25T21:56:59;2.70;;;2.60;;
10731;SDS011;5417;42.686;23.244;2023-04-25T21:59:26;3.03;;;2.77;;
10731;SDS011;5417;42.686;23.244;2023-04-25T22:01:53;3.10;;;2.90;;
10731;SDS011;5417;42.686;23.244;2023-04-25T22:04:21;3.27;;;3.03;;
10731;SDS011;5417;42.686;23.244;2023-04-25T22:06:49;3.90;;;3.60;;
10731;SDS011;5417;42.686;23.244;2023-04-25T22:09:16;3.27;;;2.97;;
10731;SDS011;5417;42.686;23.244;2023-04-25T22:11:43;2.97;;;2.73;;
10731;SDS011;5417;42.686;23.244;2023-04-25T22:14:10;2.80;;;2.60;;
10731;SDS011;5417;42.686;23.244;2023-04-25T22:16:37;3.07;;;2.87;;
10731;SDS011;5417;42.686;23.244;2023-04-25T22:19:04;3.27;;;3.07;;
10731;SDS011;5417;42.686;23.244;2023-04-25T22:21:33;3.40;;;3.20;;
10731;SDS011;5417;42.686;23.244;2023-04-25T22:24:06;3.30;;;3.10;;
10731;SDS011;5417;42.686;23.244;2023-04-25T22:26:33;3.47;;;3.27;;
10731;SDS011;5417;42.686;23.244;2023-04-25T22:29:01;3.20;;;3.00;;
10731;SDS011;5417;42.686;23.244;2023-04-25T22:31:28;3.57;;;3.37;;
10731;SDS011;5417;42.686;23.244;2023-04-25T22:33:55;3.20;;;3.00;;
10731;SDS011;5417;42.686;23.244;2023-04-25T22:36:22;4.00;;;3.70;;
10731;SDS011;5417;42.686;23.244;2023-04-25T22:38:50;3.93;;;3.73;;
10731;SDS011;5417;42.686;23.244;2023-04-25T22:41:18;4.50;;;4.20;;
10731;SDS011;5417;42.686;23.244;2023-04-25T22:43:45;3.53;;;3.23;;
10731;SDS011;5417;42.686;23.244;2023-04-25T22:46:16;3.63;;;3.43;;
10731;SDS011;5417;42.686;23.244;2023-04-25T22:48:43;5.30;;;3.63;;
10731;SDS011;5417;42.686;23.244;2023-04-25T22:51:10;4.10;;;3.80;;
10731;SDS011;5417;42.686;23.244;2023-04-25T22:53:37;4.10;;;3.90;;
10731;SDS011;5417;42.686;23.244;2023-04-25T22:56:08;4.30;;;3.90;;
10731;SDS011;5417;42.686;23.244;2023-04-25T22:58:35;3.70;;;3.50;;
10731;SDS011;5417;42.686;23.244;2023-04-25T23:01:02;4.00;;;3.70;;
10731;SDS011;5417;42.686;23.244;2023-04-25T23:03:30;3.60;;;3.40;;
10731;SDS011;5417;42.686;23.244;2023-04-25T23:05:57;3.90;;;3.60;;
10731;SDS011;5417;42.686;23.244;2023-04-25T23:08:24;3.87;;;3.63;;
10731;SDS011;5417;42.686;23.244;2023-04-25T23:10:52;4.37;;;3.73;;
10731;SDS011;5417;42.686;23.244;2023-04-25T23:13:25;3.83;;;3.57;;
10731;SDS011;5417;42.686;23.244;2023-04-25T23:15:52;3.53;;;3.33;;
10731;SDS011;5417;42.686;23.244;2023-04-25T23:18:19;3.47;;;3.17;;
10731;SDS011;5417;42.686;23.244;2023-04-25T23:20:46;4.27;;;3.70;;
10731;SDS011;5417;42.686;23.244;2023-04-25T23:23:16;4.33;;;4.03;;
10731;SDS011;5417;42.686;23.244;2023-04-25T23:25:43;4.37;;;3.17;;
10731;SDS011;5417;42.686;23.244;2023-04-25T23:28:11;3.90;;;3.67;;
10731;SDS011;5417;42.686;23.244;2023-04-25T23:30:39;3.90;;;3.70;;
10731;SDS011;5417;42.686;23.244;2023-04-25T23:33:06;4.00;;;3.80;;
10731;SDS011;5417;42.686;23.244;2023-04-25T23:35:34;3.97;;;3.77;;
10731;SDS011;5417;42.686;23.244;2023-04-25T23:38:01;4.13;;;3.77;;
10731;SDS011;5417;42.686;23.244;2023-04-25T23:40:28;4.23;;;3.93;;
10731;SDS011;5417;42.686;23.244;2023-04-25T23:42:56;3.83;;;3.53;;
10731;SDS011;5417;42.686;23.244;2023-04-25T23:45:22;3.97;;;3.40;;
10731;SDS011;5417;42.686;23.244;2023-04-25T23:47:51;3.50;;;3.30;;
10731;SDS011;5417;42.686;23.244;2023-04-25T23:50:18;3.57;;;3.10;;
10731;SDS011;5417;42.686;23.244;2023-04-25T23:52:45;2.90;;;2.73;;
10731;SDS011;5417;42.686;23.244;2023-04-25T23:55:11;2.90;;;2.70;;
10731;SDS011;5417;42.686;23.244;2023-04-25T23:57:40;2.80;;;2.60;;
